Time;durP1;ratioP1;P1;durP2;ratioP2;P2;SDS_P1;SDS_P2;PMS_P1;PMS_P2;Temp;Humidity;BMP_temperature;BMP_pressure;BME280_temperature;BME280_humidity;BME280_pressure;Samples;Min_cycle;Max_cycle;Signal;HPM_P1;HPM_P2
2022/07/21 00:00:14;;;;;;;11.25;6.22;;;;;;;22.78;48.72;100835.97;6096608;28;20048;-68
2022/07/21 00:03:09;;;;;;;10.80;6.68;;;;;;;22.72;48.91;100826.84;6096608;28;20429;-65
2022/07/21 00:06:05;;;;;;;12.97;6.60;;;;;;;22.74;49.01;100821.25;6097192;28;20421;-66
2022/07/21 00:09:01;;;;;;;9.20;6.47;;;;;;;22.74;48.64;100803.16;6096835;28;20306;-67
2022/07/21 00:11:56;;;;;;;13.40;6.50;;;;;;;22.78;48.42;100793.53;6100889;28;20478;-66
2022/07/21 00:14:53;;;;;;;9.07;5.87;;;;;;;22.76;48.83;100800.19;6101736;28;20025;-67
2022/07/21 00:17:48;;;;;;;13.88;7.22;;;;;;;22.92;48.99;100794.22;6100813;28;20040;-65
2022/07/21 00:20:44;;;;;;;11.90;6.43;;;;;;;22.96;49.68;100785.44;6101354;28;20029;-65
2022/07/21 00:23:39;;;;;;;10.60;6.20;;;;;;;22.82;50.43;100759.56;6101093;28;20029;-66
2022/07/21 00:26:34;;;;;;;13.35;6.43;;;;;;;22.69;51.15;100748.91;6101245;28;20472;-65
2022/07/21 00:29:30;;;;;;;11.80;6.23;;;;;;;22.52;51.38;100756.75;6100894;28;20041;-67
2022/07/21 00:32:25;;;;;;;13.73;6.73;;;;;;;22.50;52.13;100775.03;6100573;28;20029;-64
2022/07/21 00:35:20;;;;;;;13.40;7.03;;;;;;;22.53;52.27;100765.66;6101142;28;20386;-67
2022/07/21 00:38:16;;;;;;;14.97;6.93;;;;;;;22.51;53.03;100759.66;6100731;28;20037;-67
2022/07/21 00:41:11;;;;;;;9.37;6.23;;;;;;;22.30;53.92;100769.00;6100760;28;20267;-65
2022/07/21 00:44:18;;;;;;;13.57;6.65;;;;;;;22.23;54.38;100779.00;6100632;28;20279;-68
2022/07/21 00:47:14;;;;;;;12.68;6.75;;;;;;;22.17;55.55;100812.34;6100793;28;20079;-66
2022/07/21 00:50:13;;;;;;;10.68;6.63;;;;;;;22.29;55.15;100820.53;6100013;28;20112;-65
2022/07/21 00:53:09;;;;;;;12.25;6.22;;;;;;;22.44;54.99;100823.78;6100665;28;20036;-68
2022/07/21 00:56:04;;;;;;;13.87;7.00;;;;;;;22.47;55.00;100834.97;6101232;28;20079;-67
2022/07/21 00:59:00;;;;;;;12.35;6.78;;;;;;;22.36;55.42;100821.34;6098591;28;20028;-66
2022/07/21 01:01:56;;;;;;;11.80;6.68;;;;;;;22.42;55.67;100828.56;6099871;28;20090;-67
2022/07/21 01:04:51;;;;;;;9.27;6.55;;;;;;;22.45;55.89;100855.97;6100602;28;20025;-69
2022/07/21 01:07:52;;;;;;;15.13;6.50;;;;;;;22.39;55.99;100848.72;6100381;28;20028;-66
2022/07/21 01:10:48;;;;;;;13.57;6.15;;;;;;;22.37;56.47;100848.13;6100249;28;20332;-69
2022/07/21 01:13:44;;;;;;;14.70;6.35;;;;;;;22.24;56.70;100845.53;6099726;28;20237;-67
2022/07/21 01:16:40;;;;;;;12.48;6.43;;;;;;;22.22;57.06;100858.44;6094802;28;20411;-67
2022/07/21 01:19:35;;;;;;;10.80;5.60;;;;;;;22.19;57.31;100850.78;6100212;28;20033;-65
2022/07/21 01:22:33;;;;;;;12.55;5.72;;;;;;;22.14;57.92;100860.56;6089863;28;20044;-67
2022/07/21 01:25:28;;;;;;;12.05;5.65;;;;;;;22.15;57.75;100868.44;6098235;28;20033;-66
2022/07/21 01:28:23;;;;;;;11.03;5.50;;;;;;;22.03;58.38;100859.41;6098717;28;20071;-66
2022/07/21 01:31:19;;;;;;;9.83;5.70;;;;;;;22.02;58.51;100860.44;6099376;28;20499;-67
2022/07/21 01:34:15;;;;;;;11.30;5.75;;;;;;;21.92;58.65;100857.38;6099649;28;20104;-67
2022/07/21 01:37:10;;;;;;;10.07;5.88;;;;;;;21.91;58.91;100866.50;6099391;28;20029;-67
2022/07/21 01:43:23;;;;;;;14.85;6.43;;;;;;;21.76;60.09;100876.75;6099428;28;20045;-67
2022/07/21 01:46:18;;;;;;;11.37;6.07;;;;;;;21.66;60.66;100865.59;6099521;28;20025;-65
2022/07/21 01:49:16;;;;;;;10.53;6.00;;;;;;;21.63;60.78;100860.63;6099067;28;20068;-66
2022/07/21 01:52:11;;;;;;;10.27;6.03;;;;;;;21.60;60.86;100858.34;6098295;28;20032;-66
2022/07/21 01:55:07;;;;;;;13.40;6.30;;;;;;;21.66;60.96;100831.31;6098993;28;20021;-66
2022/07/21 01:58:02;;;;;;;13.60;6.55;;;;;;;21.73;60.54;100796.19;6098726;28;20033;-65
2022/07/21 02:00:57;;;;;;;12.53;6.73;;;;;;;21.86;60.56;100788.84;6098285;28;20423;-68
2022/07/21 02:03:55;;;;;;;12.13;5.83;;;;;;;21.92;60.20;100797.97;6098650;28;20263;-68
2022/07/21 02:06:50;;;;;;;10.35;5.65;;;;;;;21.90;60.91;100806.25;6099020;28;20345;-66
2022/07/21 02:09:45;;;;;;;9.30;5.57;;;;;;;21.92;60.83;100803.38;6098560;28;20032;-67
2022/07/21 02:12:41;;;;;;;9.53;5.37;;;;;;;21.84;61.34;100804.44;6098426;28;20017;-67
2022/07/21 02:15:36;;;;;;;9.83;5.40;;;;;;;21.86;61.30;100796.09;6098889;28;20146;-65
2022/07/21 02:18:31;;;;;;;11.17;5.70;;;;;;;21.90;61.42;100805.47;6098204;28;20341;-65
2022/07/21 02:21:27;;;;;;;10.20;5.27;;;;;;;21.92;61.36;100792.56;6098230;28;20044;-66
2022/07/21 02:24:22;;;;;;;13.33;5.87;;;;;;;21.84;61.56;100782.00;6097985;28;20276;-67
2022/07/21 02:27:17;;;;;;;14.73;6.23;;;;;;;21.80;61.67;100783.47;6098491;28;20028;-67
2022/07/21 02:30:13;;;;;;;10.83;5.20;;;;;;;21.83;61.12;100804.63;6097611;28;20033;-68
2022/07/21 02:33:08;;;;;;;13.50;5.63;;;;;;;21.94;61.30;100821.00;6097023;28;20029;-65
2022/07/21 02:36:04;;;;;;;10.27;5.97;;;;;;;21.96;61.07;100826.19;6098507;28;20029;-68
2022/07/21 02:38:59;;;;;;;8.90;5.47;;;;;;;21.77;61.78;100827.09;6097767;28;20279;-66
2022/07/21 02:41:54;;;;;;;9.95;5.57;;;;;;;21.74;62.66;100811.34;6096002;28;20033;-66
2022/07/21 02:44:50;;;;;;;12.67;5.97;;;;;;;21.73;62.39;100820.47;6098006;28;20032;-65
2022/07/21 02:47:53;;;;;;;9.53;5.53;;;;;;;21.64;63.21;100819.91;6091490;28;20267;-68
2022/07/21 02:50:48;;;;;;;13.13;6.28;;;;;;;21.61;67.16;100827.59;6096771;28;20150;-66
2022/07/21 02:53:43;;;;;;;12.27;6.38;;;;;;;21.19;69.95;100835.25;6097590;28;20067;-66
2022/07/21 02:56:39;;;;;;;11.87;6.03;;;;;;;20.89;72.43;100830.50;6097911;28;20037;-66
2022/07/21 02:59:34;;;;;;;10.30;6.17;;;;;;;20.55;74.40;100802.75;6097644;28;20541;-65
2022/07/21 03:02:29;;;;;;;11.57;6.87;;;;;;;20.26;77.39;100791.59;6096611;28;20118;-64
2022/07/21 03:05:24;;;;;;;14.90;6.87;;;;;;;20.13;78.56;100795.06;6097958;28;20025;-65
2022/07/21 03:08:20;;;;;;;11.73;6.87;;;;;;;20.08;79.55;100811.03;6097453;28;20064;-64
2022/07/21 03:11:15;;;;;;;14.93;7.28;;;;;;;20.12;79.57;100818.47;6095879;28;20275;-64
2022/07/21 03:14:11;;;;;;;14.93;6.70;;;;;;;20.55;78.25;100821.63;6097251;28;20024;-65
2022/07/21 03:17:06;;;;;;;10.80;6.40;;;;;;;20.10;78.61;100828.63;6097018;28;20480;-65
2022/07/21 03:20:02;;;;;;;15.07;6.53;;;;;;;20.23;79.25;100851.22;6096589;28;20453;-65
2022/07/21 03:22:58;;;;;;;15.27;6.68;;;;;;;20.05;78.72;100852.66;6096634;28;20032;-64
2022/07/21 03:25:53;;;;;;;10.65;6.85;;;;;;;20.04;79.23;100845.59;6097584;28;20043;-65
2022/07/21 03:28:49;;;;;;;16.50;6.82;;;;;;;20.03;81.08;100852.00;6105410;28;20028;-65
2022/07/21 03:31:44;;;;;;;12.50;7.40;;;;;;;19.89;81.80;100852.19;6101070;28;20033;-65
2022/07/21 03:34:39;;;;;;;15.70;6.67;;;;;;;19.98;82.18;100846.41;6097197;28;20067;-65
2022/07/21 03:37:48;;;;;;;14.27;7.50;;;;;;;19.88;82.46;100858.59;6097085;28;20101;-65
2022/07/21 03:40:44;;;;;;;10.27;6.10;;;;;;;19.75;82.84;100855.88;6097020;28;20021;-64
2022/07/21 03:43:39;;;;;;;10.65;6.20;;;;;;;19.79;84.07;100841.81;6097110;28;20368;-65
2022/07/21 03:46:34;;;;;;;10.73;6.77;;;;;;;19.65;84.89;100840.09;6097236;28;20166;-65
2022/07/21 03:49:29;;;;;;;12.57;7.50;;;;;;;19.56;84.83;100825.19;6096218;28;20024;-65
2022/07/21 03:52:25;;;;;;;13.82;7.60;;;;;;;19.51;85.05;100795.38;6096196;28;20299;-63
2022/07/21 03:55:21;;;;;;;13.57;7.47;;;;;;;19.54;84.99;100782.31;6097303;28;20025;-65
2022/07/21 03:58:16;;;;;;;16.00;8.02;;;;;;;19.64;84.65;100789.19;6097041;28;20259;-64
2022/07/21 04:01:11;;;;;;;12.67;7.97;;;;;;;19.57;85.15;100783.78;6097039;28;20032;-64
2022/07/21 04:04:06;;;;;;;14.77;8.43;;;;;;;19.59;85.38;100787.13;6096535;28;20033;-66
2022/07/21 04:07:02;;;;;;;13.80;8.00;;;;;;;19.59;85.59;100792.50;6101361;28;20565;-66
2022/07/21 04:09:57;;;;;;;15.47;8.70;;;;;;;19.95;85.94;100825.28;6096961;28;20139;-65
2022/07/21 04:12:53;;;;;;;12.00;7.93;;;;;;;19.93;82.21;100864.22;6096032;28;20021;-64
2022/07/21 04:15:48;;;;;;;16.33;8.13;;;;;;;20.16;81.89;100889.72;6097301;28;20112;-65
2022/07/21 04:18:44;;;;;;;15.53;7.00;;;;;;;20.10;81.88;100909.41;6096769;28;20452;-64
2022/07/21 04:21:39;;;;;;;13.67;7.23;;;;;;;20.27;81.24;100927.94;6090174;28;20036;-64
2022/07/21 04:24:34;;;;;;;12.97;7.63;;;;;;;20.35;80.97;100930.44;6096472;28;20037;-65
2022/07/21 04:27:30;;;;;;;15.60;7.93;;;;;;;20.55;79.92;100929.41;6096017;28;20376;-65
2022/07/21 04:30:25;;;;;;;13.85;7.60;;;;;;;20.85;81.52;100932.53;6096405;28;20391;-65
2022/07/21 04:33:20;;;;;;;15.47;7.87;;;;;;;20.83;80.44;100937.31;6096118;28;20032;-64
2022/07/21 04:36:16;;;;;;;12.43;7.20;;;;;;;20.81;81.62;100950.19;6097123;28;20021;-64
2022/07/21 04:39:11;;;;;;;16.47;7.17;;;;;;;20.19;82.34;100953.97;6096495;28;20103;-64
2022/07/21 04:42:06;;;;;;;13.63;7.53;;;;;;;19.99;86.24;100936.09;6095720;28;20350;-64
2022/07/21 04:45:03;;;;;;;18.10;7.63;;;;;;;19.48;88.67;100935.66;6095508;28;20037;-64
2022/07/21 04:47:58;;;;;;;14.38;8.02;;;;;;;19.28;91.13;100934.66;6094425;28;20319;-64
2022/07/21 04:50:54;;;;;;;15.63;8.53;;;;;;;19.06;92.92;100933.06;6095722;28;20566;-64
2022/07/21 04:53:49;;;;;;;13.85;8.00;;;;;;;18.80;94.60;100904.97;6095997;28;20024;-64
2022/07/21 04:56:45;;;;;;;15.23;8.27;;;;;;;18.74;95.60;100908.44;6097074;28;20036;-64
2022/07/21 04:59:41;;;;;;;16.88;8.02;;;;;;;19.09;96.88;100919.22;6100680;28;20112;-64
2022/07/21 05:02:36;;;;;;;14.30;7.47;;;;;;;19.03;96.12;100934.28;6099190;28;20025;-64
2022/07/21 05:05:31;;;;;;;14.03;8.40;;;;;;;18.97;95.91;100943.94;6099719;28;20037;-64
2022/07/21 05:08:27;;;;;;;15.30;8.60;;;;;;;19.06;96.82;100941.13;6100644;28;20017;-65
2022/07/21 05:11:23;;;;;;;12.32;7.63;;;;;;;19.21;96.54;100934.63;6099785;28;20052;-64
2022/07/21 05:14:18;;;;;;;17.20;7.70;;;;;;;19.31;96.87;100940.50;6100188;28;20055;-64
2022/07/21 05:17:13;;;;;;;13.00;7.40;;;;;;;19.06;97.44;100925.00;6099963;28;20372;-65
2022/07/21 05:20:10;;;;;;;15.33;7.23;;;;;;;19.42;97.17;100936.44;6099802;28;20029;-64
2022/07/21 05:23:05;;;;;;;16.23;7.85;;;;;;;19.33;96.71;100908.00;6099790;28;20103;-64
2022/07/21 05:26:00;;;;;;;13.40;7.30;;;;;;;19.26;96.98;100931.34;6099010;28;20404;-64
2022/07/21 05:28:56;;;;;;;12.47;7.27;;;;;;;19.62;97.07;100964.31;6100072;28;20271;-64
2022/07/21 05:31:51;;;;;;;13.00;7.43;;;;;;;19.26;96.76;100979.75;6098987;28;20112;-64
2022/07/21 05:34:46;;;;;;;13.63;7.50;;;;;;;19.11;98.07;100970.94;6099173;28;20074;-64
2022/07/21 05:37:42;;;;;;;13.03;6.87;;;;;;;19.40;98.99;100989.63;6100080;28;20420;-63
2022/07/21 05:40:37;;;;;;;12.93;7.50;;;;;;;19.39;99.22;100985.25;6098745;28;20047;-65
2022/07/21 05:43:32;;;;;;;13.48;6.45;;;;;;;19.61;99.00;100978.78;6099113;28;20029;-65
2022/07/21 05:46:28;;;;;;;11.30;6.90;;;;;;;19.79;98.20;100981.75;6099233;28;20037;-65
2022/07/21 05:49:23;;;;;;;15.27;6.80;;;;;;;19.82;97.11;100970.59;6099391;28;20033;-65
2022/07/21 05:52:19;;;;;;;10.95;6.63;;;;;;;19.78;96.54;100969.34;6099426;28;20029;-65
2022/07/21 05:55:14;;;;;;;9.77;6.43;;;;;;;20.04;96.49;100957.84;6098354;28;20029;-65
2022/07/21 05:58:09;;;;;;;11.27;6.90;;;;;;;20.36;95.64;100967.09;6099923;28;20256;-65
2022/07/21 06:01:08;;;;;;;13.25;7.13;;;;;;;20.50;95.45;100952.63;6098543;28;20114;-66
2022/07/21 06:04:03;;;;;;;12.38;6.60;;;;;;;20.53;93.02;100971.09;6099480;28;20059;-66
2022/07/21 06:06:58;;;;;;;11.05;7.03;;;;;;;20.24;93.44;100974.97;6099529;28;20175;-67
2022/07/21 06:09:54;;;;;;;13.47;7.10;;;;;;;20.47;94.38;100974.59;6098898;28;20035;-63
2022/07/21 06:12:49;;;;;;;15.13;7.70;;;;;;;20.51;93.26;100986.63;6098620;28;20025;-63
2022/07/21 06:15:44;;;;;;;10.37;6.50;;;;;;;20.46;93.32;100989.13;6099292;28;20545;-64
2022/07/21 06:18:39;;;;;;;14.13;6.87;;;;;;;20.54;92.27;100994.31;6099186;28;20025;-63
2022/07/21 06:21:35;;;;;;;11.40;6.77;;;;;;;20.71;91.96;100992.88;6093876;28;20029;-64
2022/07/21 06:24:30;;;;;;;13.85;7.05;;;;;;;20.75;91.69;100996.84;6097854;28;20025;-64
2022/07/21 06:27:25;;;;;;;11.43;6.80;;;;;;;20.78;91.03;100999.13;6098662;28;20083;-64
2022/07/21 06:30:21;;;;;;;12.10;7.03;;;;;;;20.89;89.52;100994.97;6097791;28;20025;-66
2022/07/21 06:33:17;;;;;;;11.97;6.53;;;;;;;20.92;88.74;100994.56;6098761;28;20039;-67
2022/07/21 06:36:12;;;;;;;10.20;7.13;;;;;;;21.06;88.55;101007.03;6098545;28;20029;-66
2022/07/21 06:39:07;;;;;;;12.98;6.68;;;;;;;21.11;88.48;101000.00;6098330;28;20108;-65
2022/07/21 06:42:03;;;;;;;11.63;6.23;;;;;;;21.60;84.26;100994.16;6098029;28;20067;-67
2022/07/21 06:44:58;;;;;;;11.98;5.35;;;;;;;22.15;80.27;101011.63;6099371;28;20028;-66
2022/07/21 06:48:04;;;;;;;12.00;6.20;;;;;;;22.65;78.15;101006.44;6097374;28;20052;-67
2022/07/21 06:51:00;;;;;;;10.77;5.50;;;;;;;22.86;77.08;101014.19;6097625;28;20103;-68
2022/07/21 06:53:55;;;;;;;9.00;5.97;;;;;;;22.93;77.32;101013.13;6097371;28;20112;-67
2022/07/21 06:56:50;;;;;;;9.50;5.13;;;;;;;22.72;77.65;101026.16;6098075;28;20063;-65
2022/07/21 06:59:46;;;;;;;8.73;4.63;;;;;;;22.45;76.89;101031.66;6097900;28;20317;-67
2022/07/21 07:02:41;;;;;;;9.60;4.80;;;;;;;22.02;78.93;101037.88;6096770;28;20025;-66
2022/07/21 07:05:37;;;;;;;7.37;4.80;;;;;;;22.13;78.69;101043.47;6097037;28;20378;-62
2022/07/21 07:08:32;;;;;;;7.28;4.47;;;;;;;22.46;78.79;101041.44;6097209;28;20071;-65
2022/07/21 07:11:28;;;;;;;7.47;5.03;;;;;;;22.78;76.66;101031.50;6096757;28;20550;-65
2022/07/21 07:14:23;;;;;;;8.70;4.60;;;;;;;22.63;75.96;101031.00;6096937;28;20361;-63
2022/07/21 07:17:18;;;;;;;6.70;4.23;;;;;;;22.34;77.62;101020.72;6097189;28;20041;-64
2022/07/21 07:20:14;;;;;;;8.57;4.55;;;;;;;22.96;76.68;101030.78;6096087;28;20017;-63
2022/07/21 07:23:09;;;;;;;6.80;4.40;;;;;;;23.65;74.09;101008.94;6097228;28;20387;-67
2022/07/21 07:26:04;;;;;;;6.57;4.43;;;;;;;24.22;71.86;101016.66;6097139;28;20025;-64
2022/07/21 07:29:00;;;;;;;7.57;4.07;;;;;;;23.81;70.18;101011.06;6096690;28;20631;-66
2022/07/21 07:31:55;;;;;;;5.90;3.37;;;;;;;23.60;69.73;101014.22;6096613;28;20037;-67
2022/07/21 07:34:50;;;;;;;6.40;3.53;;;;;;;23.32;71.04;101016.56;6097106;28;20041;-63
2022/07/21 07:37:46;;;;;;;6.43;3.47;;;;;;;23.12;72.30;101011.31;6097458;28;20479;-64
2022/07/21 07:40:42;;;;;;;5.20;3.45;;;;;;;23.50;70.74;101006.63;6096532;28;20291;-65
2022/07/21 07:43:37;;;;;;;5.63;3.38;;;;;;;23.72;69.63;101004.31;6096693;28;20036;-65
2022/07/21 07:46:32;;;;;;;7.07;4.20;;;;;;;24.07;67.66;101023.50;6097028;28;20032;-67
2022/07/21 07:49:29;;;;;;;7.47;3.97;;;;;;;24.06;67.06;101011.00;6096940;28;20874;-64
2022/07/21 07:52:25;;;;;;;6.68;4.10;;;;;;;23.69;68.56;101013.72;6090217;28;20179;-63
2022/07/21 07:55:20;;;;;;;8.50;3.88;;;;;;;23.63;68.77;101028.16;6096622;28;20041;-63
2022/07/21 07:58:16;;;;;;;6.47;3.80;;;;;;;23.76;68.08;101021.75;6097236;28;20079;-63
2022/07/21 08:01:11;;;;;;;9.60;4.00;;;;;;;23.74;67.73;101031.16;6096046;28;20028;-64
2022/07/21 08:04:06;;;;;;;7.40;4.07;;;;;;;23.77;67.69;101046.97;6096240;28;20271;-64
2022/07/21 08:07:03;;;;;;;7.10;3.77;;;;;;;23.87;68.32;101045.41;6096819;28;20029;-64
2022/07/21 08:09:58;;;;;;;8.13;4.18;;;;;;;24.41;66.55;101039.16;6096512;28;20035;-64
2022/07/21 08:12:53;;;;;;;5.90;3.50;;;;;;;25.12;63.15;101046.50;6095630;28;20037;-65
2022/07/21 08:15:49;;;;;;;4.97;3.40;;;;;;;24.98;62.87;101039.63;6096742;28;20368;-63
2022/07/21 08:18:44;;;;;;;4.50;3.40;;;;;;;24.92;63.53;101043.28;6095974;28;20032;-64
2022/07/21 08:21:40;;;;;;;10.60;4.00;;;;;;;24.81;63.91;101051.13;6095990;28;20025;-64
2022/07/21 08:24:35;;;;;;;7.13;3.80;;;;;;;24.70;63.40;101060.06;6096388;28;20282;-65
2022/07/21 08:27:31;;;;;;;6.10;3.40;;;;;;;24.17;64.06;101059.06;6096924;28;20299;-65
2022/07/21 08:30:26;;;;;;;3.83;2.93;;;;;;;23.75;65.38;101060.75;6087656;28;20477;-63
2022/07/21 08:33:21;;;;;;;5.53;3.33;;;;;;;23.86;65.28;101061.88;6096552;28;20726;-66
2022/07/21 08:36:17;;;;;;;3.97;2.63;;;;;;;23.95;64.49;101065.94;6101083;28;20469;-66
2022/07/21 08:39:12;;;;;;;5.35;3.28;;;;;;;23.74;64.97;101063.66;6101045;28;20643;-66
2022/07/21 08:42:08;;;;;;;5.13;2.90;;;;;;;24.05;65.16;101071.69;6100525;28;20068;-65
2022/07/21 08:45:04;;;;;;;5.15;3.20;;;;;;;24.04;64.23;101065.44;6100990;28;20648;-66
2022/07/21 08:48:00;;;;;;;4.50;2.78;;;;;;;23.49;66.44;101078.06;6100305;28;20040;-64
2022/07/21 08:50:56;;;;;;;3.95;2.30;;;;;;;23.05;68.94;101075.44;6100122;28;20419;-66
2022/07/21 08:53:51;;;;;;;4.43;2.75;;;;;;;22.99;69.21;101070.94;6100319;28;20480;-67
2022/07/21 08:56:47;;;;;;;5.30;3.17;;;;;;;22.64;70.73;101066.97;6116293;28;20032;-66
2022/07/21 08:59:42;;;;;;;3.42;2.00;;;;;;;22.43;71.27;101081.59;6100986;28;20113;-66
2022/07/21 09:02:38;;;;;;;3.83;2.00;;;;;;;22.12;71.95;101090.44;6099988;28;20401;-65
2022/07/21 09:05:33;;;;;;;2.45;1.67;;;;;;;22.08;71.41;101075.69;6100445;28;20546;-65
2022/07/21 09:08:33;;;;;;;3.80;1.90;;;;;;;22.22;71.67;101074.63;6100465;28;20415;-65
2022/07/21 09:11:33;;;;;;;2.90;1.80;;;;;;;22.73;70.38;101073.78;6100172;28;20357;-63
2022/07/21 09:14:32;;;;;;;3.50;1.80;;;;;;;23.15;69.40;101075.81;6100366;28;20083;-66
2022/07/21 09:17:27;;;;;;;;;;;;;;;23.36;68.32;101083.56;6100754;28;20036;-65
2022/07/21 09:20:24;;;;;;;3.63;2.37;;;;;;;23.60;67.74;101093.59;6099819;28;20212;-65
2022/07/21 09:23:23;;;;;;;4.50;2.33;;;;;;;23.35;68.54;101100.00;6099740;28;20033;-65
2022/07/21 09:26:18;;;;;;;3.13;1.95;;;;;;;23.04;69.84;101100.88;6100531;28;20044;-66
2022/07/21 09:29:13;;;;;;;2.37;1.60;;;;;;;22.49;71.00;101097.78;6098809;28;20552;-66
2022/07/21 09:32:16;;;;;;;2.40;1.57;;;;;;;22.26;72.60;101112.81;6099177;28;20032;-66
2022/07/21 09:35:13;;;;;;;2.60;1.55;;;;;;;21.92;72.16;101105.84;6098394;28;20048;-65
2022/07/21 09:38:12;;;;;;;2.90;1.50;;;;;;;21.76;73.11;101111.66;6098497;28;20321;-65
2022/07/21 09:41:16;;;;;;;3.50;1.73;;;;;;;21.73;73.30;101112.09;6099175;28;20025;-66
2022/07/21 09:44:12;;;;;;;3.17;1.42;;;;;;;21.59;73.25;101116.66;6098889;28;20024;-65
2022/07/21 09:47:12;;;;;;;2.10;1.30;;;;;;;21.65;73.94;101112.28;6099586;28;20040;-66
2022/07/21 09:50:10;;;;;;;3.85;1.77;;;;;;;21.55;75.54;101114.59;6099751;28;20029;-64
2022/07/21 09:53:05;;;;;;;3.13;1.63;;;;;;;21.71;75.34;101115.00;6099288;28;20025;-65
2022/07/21 09:56:01;;;;;;;3.30;1.53;;;;;;;22.13;73.00;101113.69;6099886;28;20047;-66
2022/07/21 09:58:57;;;;;;;3.10;1.50;;;;;;;22.50;71.22;101104.84;6114236;28;20055;-66
2022/07/21 10:01:53;;;;;;;1.63;1.20;;;;;;;22.94;70.18;101114.84;6097916;28;20039;-65
2022/07/21 10:04:54;;;;;;;3.40;1.70;;;;;;;23.31;68.96;101102.34;6114286;28;20680;-66
2022/07/21 10:07:49;;;;;;;2.55;1.60;;;;;;;23.82;66.83;101101.31;6114893;28;20032;-65
2022/07/21 10:10:45;;;;;;;3.05;1.70;;;;;;;24.24;64.01;101104.00;6098371;28;20036;-66
2022/07/21 10:13:40;;;;;;;2.67;1.70;;;;;;;25.04;61.69;101104.66;6098551;28;20060;-65
2022/07/21 10:16:36;;;;;;;2.72;1.73;;;;;;;25.01;60.96;101117.88;6099085;28;20099;-66
2022/07/21 10:19:45;;;;;;;3.20;1.77;;;;;;;24.70;61.90;101119.75;6098994;28;20033;-64
2022/07/21 10:23:03;;;;;;;2.92;1.83;;;;;;;24.72;61.87;101122.22;6113600;28;20044;-65
2022/07/21 10:25:59;;;;;;;3.78;2.55;;;;;;;24.56;61.57;101117.41;6087252;28;20032;-67
2022/07/21 10:28:54;;;;;;;3.83;2.80;;;;;;;24.48;61.72;101123.97;6097891;28;20465;-64
2022/07/21 10:31:50;;;;;;;5.47;3.90;;;;;;;24.53;60.73;101118.69;6097852;28;20041;-66
2022/07/21 10:34:48;;;;;;;6.57;4.55;;;;;;;24.37;60.91;101108.47;6098098;28;20056;-65
2022/07/21 10:37:44;;;;;;;6.70;4.90;;;;;;;24.32;61.27;101105.59;6098036;28;20040;-65
2022/07/21 10:40:40;;;;;;;9.20;4.88;;;;;;;24.89;57.72;101087.16;6097390;28;20426;-66
2022/07/21 10:43:37;;;;;;;7.43;4.53;;;;;;;24.96;57.84;101090.59;6097993;28;20075;-65
2022/07/21 10:46:35;;;;;;;6.60;4.80;;;;;;;25.33;56.29;101086.66;6098294;28;20037;-63
2022/07/21 10:49:52;;;;;;;6.65;4.53;;;;;;;25.61;55.99;101089.56;6098098;28;20487;-63
2022/07/21 10:52:49;;;;;;;6.30;4.57;;;;;;;25.59;55.62;101072.69;6096923;28;20037;-63
2022/07/21 10:55:49;;;;;;;5.38;4.22;;;;;;;25.89;55.64;101081.56;6097045;28;20457;-63
2022/07/21 10:58:47;;;;;;;7.93;4.70;;;;;;;25.99;54.25;101070.91;6097714;28;20104;-64
2022/07/21 11:01:42;;;;;;;7.85;4.70;;;;;;;26.43;52.47;101071.31;6112671;28;20044;-63
2022/07/21 11:05:03;;;;;;;7.30;4.63;;;;;;;26.68;51.13;101074.53;6097908;28;20449;-64
2022/07/21 11:08:19;;;;;;;5.88;4.35;;;;;;;25.95;51.55;101075.13;6098008;28;20048;-64
2022/07/21 11:11:25;;;;;;;6.43;4.45;;;;;;;26.23;52.26;101066.25;6097301;28;20384;-63
2022/07/21 11:14:34;;;;;;;6.60;4.07;;;;;;;27.00;49.96;101073.00;6097346;28;20036;-63
2022/07/21 11:17:30;;;;;;;5.28;4.03;;;;;;;27.09;49.61;101066.06;6097046;28;20028;-63
2022/07/21 11:20:25;;;;;;;6.80;4.43;;;;;;;27.33;49.21;101049.56;6095176;28;20044;-65
2022/07/21 11:23:21;;;;;;;6.53;4.37;;;;;;;26.94;49.65;101049.47;6096723;28;20035;-64
2022/07/21 11:26:24;;;;;;;5.80;4.13;;;;;;;26.60;50.90;101056.72;6096629;28;20021;-63
2022/07/21 11:29:19;;;;;;;6.22;4.40;;;;;;;26.55;50.69;101048.41;6095837;28;20370;-64
2022/07/21 11:32:19;;;;;;;5.30;3.80;;;;;;;26.48;50.98;101053.19;6096910;28;20035;-63
2022/07/21 11:35:14;;;;;;;5.43;4.03;;;;;;;26.08;51.35;101054.22;6091926;28;20638;-64
2022/07/21 11:38:09;;;;;;;7.13;4.03;;;;;;;26.04;50.99;101051.13;6096476;28;20025;-63
2022/07/21 11:41:18;;;;;;;6.53;3.88;;;;;;;25.97;51.35;101056.72;6096528;28;20032;-63
2022/07/21 11:44:23;;;;;;;4.90;3.78;;;;;;;26.02;51.29;101050.56;6096652;28;20040;-63
2022/07/21 11:47:20;;;;;;;6.07;3.90;;;;;;;25.90;51.79;101044.34;6096270;28;20064;-64
2022/07/21 11:50:16;;;;;;;6.20;4.03;;;;;;;26.02;51.01;101043.22;6095685;28;20051;-64
2022/07/21 11:53:11;;;;;;;5.30;3.92;;;;;;;25.96;51.15;101043.34;6096132;28;20460;-64
2022/07/21 11:56:14;;;;;;;5.67;4.37;;;;;;;26.02;50.69;101043.22;6096297;28;20376;-64
2022/07/21 11:59:10;;;;;;;7.82;4.47;;;;;;;26.23;50.92;101038.25;6096472;28;20090;-64
2022/07/21 12:02:08;;;;;;;6.45;3.88;;;;;;;26.35;50.34;101039.03;6096023;28;20029;-64
2022/07/21 12:05:04;;;;;;;6.50;3.90;;;;;;;25.94;51.15;101034.63;6096755;28;20056;-65
2022/07/21 12:08:00;;;;;;;5.68;4.05;;;;;;;25.67;50.23;101044.34;6101251;28;20475;-62
2022/07/21 12:11:05;;;;;;;5.07;3.60;;;;;;;25.52;51.49;101042.06;6100939;28;20036;-64
2022/07/21 12:14:02;;;;;;;4.90;3.70;;;;;;;25.13;53.60;101046.28;6100569;28;20415;-64
2022/07/21 12:16:57;;;;;;;6.05;4.03;;;;;;;24.82;55.67;101041.94;6101541;28;20041;-66
2022/07/21 12:19:53;;;;;;;6.00;4.00;;;;;;;24.70;58.71;101032.91;6100867;28;20592;-66
2022/07/21 12:22:49;;;;;;;6.47;4.47;;;;;;;24.74;57.91;101036.81;6100169;28;20080;-63
2022/07/21 12:25:44;;;;;;;10.07;4.32;;;;;;;24.96;58.48;101041.75;6101138;28;20167;-63
2022/07/21 12:28:48;;;;;;;6.23;3.90;;;;;;;25.33;54.05;101035.06;6100589;28;20037;-64
2022/07/21 12:31:43;;;;;;;7.32;4.32;;;;;;;25.49;51.64;101034.44;6098903;28;20345;-64
2022/07/21 12:34:52;;;;;;;5.90;3.63;;;;;;;25.86;50.29;101033.09;6100647;28;20037;-64
2022/07/21 12:37:55;;;;;;;5.88;4.00;;;;;;;26.16;48.64;101037.56;6100172;28;20354;-65
2022/07/21 12:40:56;;;;;;;5.18;3.30;;;;;;;26.07;48.49;101033.53;6100569;28;20041;-63
2022/07/21 12:43:59;;;;;;;5.03;3.25;;;;;;;25.98;49.02;101017.56;6101356;28;20024;-65
2022/07/21 12:46:54;;;;;;;5.72;4.05;;;;;;;25.57;50.89;101027.81;6094950;28;20033;-64
2022/07/21 12:50:00;;;;;;;7.13;3.83;;;;;;;26.09;50.24;101028.69;6097799;28;20147;-64
2022/07/21 12:52:55;;;;;;;6.40;3.97;;;;;;;26.39;48.83;101021.19;6097555;28;20282;-64
2022/07/21 12:55:50;;;;;;;6.03;3.70;;;;;;;26.02;49.08;101021.47;6097599;28;20040;-64
2022/07/21 12:58:46;;;;;;;8.00;4.20;;;;;;;26.00;49.61;101020.91;6097603;28;20040;-65
2022/07/21 13:01:42;;;;;;;4.95;3.50;;;;;;;25.95;50.06;101025.41;6097338;28;20028;-65
2022/07/21 13:04:37;;;;;;;7.75;5.10;;;;;;;25.64;50.93;101029.34;6096098;28;20087;-65
2022/07/21 13:07:32;;;;;;;6.07;3.97;;;;;;;25.23;50.71;101021.25;6094186;28;20443;-64
2022/07/21 13:10:28;;;;;;;7.13;4.27;;;;;;;25.04;51.57;101023.22;6093653;28;20268;-65
2022/07/21 13:13:25;;;;;;;4.93;3.45;;;;;;;24.98;50.75;101024.16;6097274;28;20783;-63
2022/07/21 13:16:21;;;;;;;6.00;3.83;;;;;;;24.76;51.53;101025.72;6097034;28;20526;-64
2022/07/21 13:19:16;;;;;;;5.28;3.40;;;;;;;24.80;52.01;101035.94;6096415;28;20033;-65
2022/07/21 13:22:11;;;;;;;6.40;3.13;;;;;;;24.82;52.82;101047.38;6097846;28;20051;-64
2022/07/21 13:25:08;;;;;;;4.50;2.80;;;;;;;25.52;54.08;101035.84;6096940;28;20029;-64
2022/07/21 13:28:03;;;;;;;5.80;3.30;;;;;;;25.68;53.48;101041.41;6097215;28;20029;-64
2022/07/21 13:30:58;;;;;;;5.45;3.13;;;;;;;25.53;50.14;101035.59;6096239;28;20447;-63
2022/07/21 13:33:54;;;;;;;4.55;3.05;;;;;;;25.92;49.55;101042.19;6097148;28;20141;-65
2022/07/21 13:36:49;;;;;;;5.13;3.23;;;;;;;26.20;47.84;101033.31;6095854;28;20210;-64
2022/07/21 13:39:44;;;;;;;5.23;3.23;;;;;;;26.65;47.16;101028.75;6096617;28;20754;-65